sensor_id;sensor_type;location;lat;lon;timestamp;temperature;humidity
23556;DHT22;11956;53.184;8.578;2022-08-01T00:00:07;18.50;99.90
23556;DHT22;11956;53.184;8.578;2022-08-01T00:03:09;18.40;99.90
23556;DHT22;11956;53.184;8.578;2022-08-01T00:06:10;18.50;99.90
23556;DHT22;11956;53.184;8.578;2022-08-01T00:09:11;18.40;99.90
23556;DHT22;11956;53.184;8.578;2022-08-01T00:12:12;18.40;99.90
23556;DHT22;11956;53.184;8.578;2022-08-01T00:15:15;18.40;99.90
23556;DHT22;11956;53.184;8.578;2022-08-01T00:18:17;18.40;99.90
23556;DHT22;11956;53.184;8.578;2022-08-01T00:21:18;18.50;99.90
23556;DHT22;11956;53.184;8.578;2022-08-01T00:24:19;18.50;99.90
23556;DHT22;11956;53.184;8.578;2022-08-01T00:27:20;18.50;99.90
23556;DHT22;11956;53.184;8.578;2022-08-01T00:30:20;18.60;99.90
23556;DHT22;11956;53.184;8.578;2022-08-01T00:33:21;18.50;99.90
23556;DHT22;11956;53.184;8.578;2022-08-01T00:36:22;18.50;99.90
23556;DHT22;11956;53.184;8.578;2022-08-01T00:39:23;18.50;99.90
23556;DHT22;11956;53.184;8.578;2022-08-01T00:42:24;18.50;99.90
23556;DHT22;11956;53.184;8.578;2022-08-01T00:45:25;18.50;99.90
23556;DHT22;11956;53.184;8.578;2022-08-01T00:48:25;18.50;99.90
23556;DHT22;11956;53.184;8.578;2022-08-01T00:51:27;18.50;99.90
23556;DHT22;11956;53.184;8.578;2022-08-01T00:54:28;18.40;99.90
23556;DHT22;11956;53.184;8.578;2022-08-01T00:57:29;18.40;99.90
23556;DHT22;11956;53.184;8.578;2022-08-01T01:00:30;18.40;99.90
23556;DHT22;11956;53.184;8.578;2022-08-01T01:03:32;18.40;99.90
23556;DHT22;11956;53.184;8.578;2022-08-01T01:06:54;18.30;99.90
23556;DHT22;11956;53.184;8.578;2022-08-01T01:10:21;18.30;99.90
23556;DHT22;11956;53.184;8.578;2022-08-01T01:13:30;18.30;99.90
23556;DHT22;11956;53.184;8.578;2022-08-01T01:16:37;18.40;99.90
23556;DHT22;11956;53.184;8.578;2022-08-01T01:19:45;18.30;99.90
23556;DHT22;11956;53.184;8.578;2022-08-01T01:23:10;18.30;99.90
23556;DHT22;11956;53.184;8.578;2022-08-01T01:29:50;18.40;99.90
23556;DHT22;11956;53.184;8.578;2022-08-01T01:32:53;18.40;99.90
23556;DHT22;11956;53.184;8.578;2022-08-01T01:35:59;18.30;99.90
23556;DHT22;11956;53.184;8.578;2022-08-01T01:39:02;18.30;99.90
23556;DHT22;11956;53.184;8.578;2022-08-01T01:42:05;18.30;99.90
23556;DHT22;11956;53.184;8.578;2022-08-01T01:45:07;18.30;99.90
23556;DHT22;11956;53.184;8.578;2022-08-01T01:48:09;18.30;99.90
23556;DHT22;11956;53.184;8.578;2022-08-01T01:51:15;18.20;99.90
23556;DHT22;11956;53.184;8.578;2022-08-01T01:54:17;18.20;99.90
23556;DHT22;11956;53.184;8.578;2022-08-01T01:57:20;18.20;99.90
23556;DHT22;11956;53.184;8.578;2022-08-01T02:00:22;18.20;99.90
23556;DHT22;11956;53.184;8.578;2022-08-01T02:03:25;18.10;99.90
23556;DHT22;11956;53.184;8.578;2022-08-01T02:06:27;18.10;99.90
23556;DHT22;11956;53.184;8.578;2022-08-01T02:09:29;18.20;99.90
23556;DHT22;11956;53.184;8.578;2022-08-01T02:12:35;18.20;99.90
23556;DHT22;11956;53.184;8.578;2022-08-01T02:15:37;18.20;99.90
23556;DHT22;11956;53.184;8.578;2022-08-01T02:18:38;18.10;99.90
23556;DHT22;11956;53.184;8.578;2022-08-01T02:21:45;18.20;99.90
23556;DHT22;11956;53.184;8.578;2022-08-01T02:24:54;18.10;99.90
23556;DHT22;11956;53.184;8.578;2022-08-01T02:28:04;18.10;99.90
23556;DHT22;11956;53.184;8.578;2022-08-01T02:31:11;18.10;99.90
23556;DHT22;11956;53.184;8.578;2022-08-01T02:34:17;18.10;99.90
23556;DHT22;11956;53.184;8.578;2022-08-01T02:37:20;18.10;99.90
23556;DHT22;11956;53.184;8.578;2022-08-01T02:40:21;18.10;99.90
23556;DHT22;11956;53.184;8.578;2022-08-01T02:43:26;18.10;99.90
23556;DHT22;11956;53.184;8.578;2022-08-01T02:46:39;18.10;99.90
23556;DHT22;11956;53.184;8.578;2022-08-01T02:49:47;18.10;99.90
23556;DHT22;11956;53.184;8.578;2022-08-01T02:52:49;18.00;99.90
23556;DHT22;11956;53.184;8.578;2022-08-01T02:55:52;18.00;99.90
23556;DHT22;11956;53.184;8.578;2022-08-01T02:58:54;18.00;99.90
23556;DHT22;11956;53.184;8.578;2022-08-01T03:01:57;18.00;99.90
23556;DHT22;11956;53.184;8.578;2022-08-01T03:04:59;18.00;99.90
23556;DHT22;11956;53.184;8.578;2022-08-01T03:08:02;18.00;99.90
23556;DHT22;11956;53.184;8.578;2022-08-01T03:11:03;17.90;99.90
23556;DHT22;11956;53.184;8.578;2022-08-01T03:14:07;17.90;99.90
23556;DHT22;11956;53.184;8.578;2022-08-01T03:17:10;17.90;99.90
23556;DHT22;11956;53.184;8.578;2022-08-01T03:20:14;17.90;99.90
23556;DHT22;11956;53.184;8.578;2022-08-01T03:23:17;17.80;99.90
23556;DHT22;11956;53.184;8.578;2022-08-01T03:26:19;17.80;99.90
23556;DHT22;11956;53.184;8.578;2022-08-01T03:29:24;17.80;99.90
23556;DHT22;11956;53.184;8.578;2022-08-01T03:32:27;17.80;99.90
23556;DHT22;11956;53.184;8.578;2022-08-01T03:35:36;17.80;99.90
23556;DHT22;11956;53.184;8.578;2022-08-01T03:38:40;17.70;99.90
23556;DHT22;11956;53.184;8.578;2022-08-01T03:41:46;17.70;99.90
23556;DHT22;11956;53.184;8.578;2022-08-01T03:45:00;17.70;99.90
23556;DHT22;11956;53.184;8.578;2022-08-01T03:48:12;17.60;99.90
23556;DHT22;11956;53.184;8.578;2022-08-01T03:51:15;17.60;99.90
23556;DHT22;11956;53.184;8.578;2022-08-01T03:54:21;17.60;99.90
23556;DHT22;11956;53.184;8.578;2022-08-01T03:57:24;17.60;99.90
23556;DHT22;11956;53.184;8.578;2022-08-01T04:00:29;17.70;99.90
23556;DHT22;11956;53.184;8.578;2022-08-01T04:03:30;17.50;99.90
23556;DHT22;11956;53.184;8.578;2022-08-01T04:06:32;17.50;99.90
23556;DHT22;11956;53.184;8.578;2022-08-01T04:09:34;17.40;99.90
23556;DHT22;11956;53.184;8.578;2022-08-01T04:12:34;17.40;99.90
23556;DHT22;11956;53.184;8.578;2022-08-01T04:15:35;17.40;99.90
23556;DHT22;11956;53.184;8.578;2022-08-01T04:18:36;17.40;99.90
23556;DHT22;11956;53.184;8.578;2022-08-01T04:21:37;17.40;99.90
23556;DHT22;11956;53.184;8.578;2022-08-01T04:24:39;17.30;99.90
23556;DHT22;11956;53.184;8.578;2022-08-01T04:27:45;17.30;99.90
23556;DHT22;11956;53.184;8.578;2022-08-01T04:30:50;17.30;99.90
23556;DHT22;11956;53.184;8.578;2022-08-01T04:33:54;17.20;99.90
23556;DHT22;11956;53.184;8.578;2022-08-01T04:36:57;17.20;99.90
23556;DHT22;11956;53.184;8.578;2022-08-01T04:39:58;17.20;99.90
23556;DHT22;11956;53.184;8.578;2022-08-01T04:43:00;17.20;99.90
23556;DHT22;11956;53.184;8.578;2022-08-01T04:46:02;17.20;99.90
23556;DHT22;11956;53.184;8.578;2022-08-01T04:49:08;17.20;99.90
23556;DHT22;11956;53.184;8.578;2022-08-01T04:52:12;17.10;99.90
23556;DHT22;11956;53.184;8.578;2022-08-01T04:55:13;17.10;99.90
23556;DHT22;11956;53.184;8.578;2022-08-01T04:58:17;17.10;99.90
23556;DHT22;11956;53.184;8.578;2022-08-01T05:01:18;17.20;99.90
23556;DHT22;11956;53.184;8.578;2022-08-01T05:04:19;17.10;99.90
23556;DHT22;11956;53.184;8.578;2022-08-01T05:07:20;17.10;99.90
23556;DHT22;11956;53.184;8.578;2022-08-01T05:10:21;17.00;99.90
23556;DHT22;11956;53.184;8.578;2022-08-01T05:13:22;17.10;99.90
23556;DHT22;11956;53.184;8.578;2022-08-01T05:16:23;17.10;99.90
23556;DHT22;11956;53.184;8.578;2022-08-01T05:19:24;17.10;99.90
23556;DHT22;11956;53.184;8.578;2022-08-01T05:22:25;17.10;99.90
23556;DHT22;11956;53.184;8.578;2022-08-01T05:25:27;17.10;99.90
23556;DHT22;11956;53.184;8.578;2022-08-01T05:28:28;17.10;99.90
23556;DHT22;11956;53.184;8.578;2022-08-01T05:31:29;17.10;99.90
23556;DHT22;11956;53.184;8.578;2022-08-01T05:34:30;17.10;99.90
23556;DHT22;11956;53.184;8.578;2022-08-01T05:37:31;17.00;99.90
23556;DHT22;11956;53.184;8.578;2022-08-01T05:40:32;16.90;99.90
23556;DHT22;11956;53.184;8.578;2022-08-01T05:43:33;17.00;99.90
23556;DHT22;11956;53.184;8.578;2022-08-01T05:46:34;17.00;99.90
23556;DHT22;11956;53.184;8.578;2022-08-01T05:49:35;16.90;99.90
23556;DHT22;11956;53.184;8.578;2022-08-01T05:52:36;17.00;99.90
23556;DHT22;11956;53.184;8.578;2022-08-01T05:55:37;17.00;99.90
23556;DHT22;11956;53.184;8.578;2022-08-01T05:58:38;16.90;99.90
23556;DHT22;11956;53.184;8.578;2022-08-01T06:01:39;16.80;99.90
23556;DHT22;11956;53.184;8.578;2022-08-01T06:04:39;16.90;99.90
23556;DHT22;11956;53.184;8.578;2022-08-01T06:07:41;16.90;99.90
23556;DHT22;11956;53.184;8.578;2022-08-01T06:10:42;16.90;99.90
23556;DHT22;11956;53.184;8.578;2022-08-01T06:13:43;16.90;99.90
23556;DHT22;11956;53.184;8.578;2022-08-01T06:16:43;16.80;99.90
23556;DHT22;11956;53.184;8.578;2022-08-01T06:19:44;16.80;99.90
23556;DHT22;11956;53.184;8.578;2022-08-01T06:22:45;16.70;99.90
23556;DHT22;11956;53.184;8.578;2022-08-01T06:25:46;16.80;99.90
23556;DHT22;11956;53.184;8.578;2022-08-01T06:28:48;17.00;99.90
23556;DHT22;11956;53.184;8.578;2022-08-01T06:31:48;17.10;99.90
23556;DHT22;11956;53.184;8.578;2022-08-01T06:34:49;17.10;99.90
23556;DHT22;11956;53.184;8.578;2022-08-01T06:37:50;17.10;99.90
23556;DHT22;11956;53.184;8.578;2022-08-01T06:40:51;17.20;99.90
23556;DHT22;11956;53.184;8.578;2022-08-01T06:43:52;17.20;99.90
23556;DHT22;11956;53.184;8.578;2022-08-01T06:46:53;17.30;99.90
23556;DHT22;11956;53.184;8.578;2022-08-01T06:49:54;17.30;99.90
23556;DHT22;11956;53.184;8.578;2022-08-01T06:52:55;17.40;99.90
23556;DHT22;11956;53.184;8.578;2022-08-01T06:55:55;17.40;99.90
23556;DHT22;11956;53.184;8.578;2022-08-01T06:58:56;17.50;99.90
23556;DHT22;11956;53.184;8.578;2022-08-01T07:02:01;17.60;99.90
23556;DHT22;11956;53.184;8.578;2022-08-01T07:05:03;17.70;99.90
23556;DHT22;11956;53.184;8.578;2022-08-01T07:08:04;17.70;99.90
23556;DHT22;11956;53.184;8.578;2022-08-01T07:11:05;17.70;99.90
23556;DHT22;11956;53.184;8.578;2022-08-01T07:14:06;17.70;99.90
23556;DHT22;11956;53.184;8.578;2022-08-01T07:17:07;17.70;99.90
23556;DHT22;11956;53.184;8.578;2022-08-01T07:20:09;17.80;99.90
23556;DHT22;11956;53.184;8.578;2022-08-01T07:23:12;17.80;99.90
23556;DHT22;11956;53.184;8.578;2022-08-01T07:26:13;18.00;99.90
23556;DHT22;11956;53.184;8.578;2022-08-01T07:29:14;18.10;99.90
23556;DHT22;11956;53.184;8.578;2022-08-01T07:32:15;18.30;99.90
23556;DHT22;11956;53.184;8.578;2022-08-01T07:35:16;18.60;99.90
23556;DHT22;11956;53.184;8.578;2022-08-01T07:38:17;19.80;99.90
23556;DHT22;11956;53.184;8.578;2022-08-01T07:41:18;20.80;99.90
23556;DHT22;11956;53.184;8.578;2022-08-01T07:44:19;20.70;99.90
23556;DHT22;11956;53.184;8.578;2022-08-01T07:47:26;22.40;99.90
23556;DHT22;11956;53.184;8.578;2022-08-01T07:50:27;22.60;99.90
23556;DHT22;11956;53.184;8.578;2022-08-01T07:53:28;22.00;99.90
23556;DHT22;11956;53.184;8.578;2022-08-01T07:56:29;21.70;99.90
23556;DHT22;11956;53.184;8.578;2022-08-01T07:59:30;22.10;99.90
23556;DHT22;11956;53.184;8.578;2022-08-01T08:02:31;23.90;99.90
23556;DHT22;11956;53.184;8.578;2022-08-01T08:05:32;25.90;99.90
23556;DHT22;11956;53.184;8.578;2022-08-01T08:08:35;25.80;99.90
23556;DHT22;11956;53.184;8.578;2022-08-01T08:11:36;24.00;99.90
23556;DHT22;11956;53.184;8.578;2022-08-01T08:14:37;23.70;99.90
23556;DHT22;11956;53.184;8.578;2022-08-01T08:17:38;24.90;99.90
23556;DHT22;11956;53.184;8.578;2022-08-01T08:20:39;26.00;99.90
23556;DHT22;11956;53.184;8.578;2022-08-01T08:23:40;25.70;99.90
23556;DHT22;11956;53.184;8.578;2022-08-01T08:27:00;26.70;99.90
23556;DHT22;11956;53.184;8.578;2022-08-01T08:30:02;25.90;99.90
23556;DHT22;11956;53.184;8.578;2022-08-01T08:33:07;25.60;99.90
23556;DHT22;11956;53.184;8.578;2022-08-01T08:36:08;25.40;99.90
23556;DHT22;11956;53.184;8.578;2022-08-01T08:39:09;25.90;99.90
23556;DHT22;11956;53.184;8.578;2022-08-01T08:42:11;26.80;99.90
23556;DHT22;11956;53.184;8.578;2022-08-01T08:45:12;28.40;98.40
23556;DHT22;11956;53.184;8.578;2022-08-01T08:48:13;30.00;94.80
23556;DHT22;11956;53.184;8.578;2022-08-01T08:51:16;29.50;94.10
23556;DHT22;11956;53.184;8.578;2022-08-01T08:54:21;29.30;92.90
23556;DHT22;11956;53.184;8.578;2022-08-01T08:57:24;27.70;94.90
23556;DHT22;11956;53.184;8.578;2022-08-01T09:00:25;25.10;99.90
23556;DHT22;11956;53.184;8.578;2022-08-01T09:03:26;24.20;99.90
23556;DHT22;11956;53.184;8.578;2022-08-01T09:06:27;25.00;99.90
23556;DHT22;11956;53.184;8.578;2022-08-01T09:09:29;26.70;97.00
23556;DHT22;11956;53.184;8.578;2022-08-01T09:12:30;27.10;96.20
23556;DHT22;11956;53.184;8.578;2022-08-01T09:15:43;26.30;98.60
23556;DHT22;11956;53.184;8.578;2022-08-01T09:18:45;24.80;99.90
23556;DHT22;11956;53.184;8.578;2022-08-01T09:22:04;24.70;99.90
23556;DHT22;11956;53.184;8.578;2022-08-01T09:25:08;26.00;99.30
23556;DHT22;11956;53.184;8.578;2022-08-01T09:28:11;26.70;98.20
23556;DHT22;11956;53.184;8.578;2022-08-01T09:31:14;27.40;96.20
23556;DHT22;11956;53.184;8.578;2022-08-01T09:34:27;27.80;95.30
23556;DHT22;11956;53.184;8.578;2022-08-01T09:37:30;27.60;94.50
23556;DHT22;11956;53.184;8.578;2022-08-01T09:41:04;26.50;95.70
23556;DHT22;11956;53.184;8.578;2022-08-01T09:44:05;25.60;97.10
23556;DHT22;11956;53.184;8.578;2022-08-01T09:47:06;26.20;96.60
23556;DHT22;11956;53.184;8.578;2022-08-01T09:50:07;26.60;95.00
23556;DHT22;11956;53.184;8.578;2022-08-01T09:53:12;25.70;97.10
23556;DHT22;11956;53.184;8.578;2022-08-01T09:56:13;25.70;96.90
23556;DHT22;11956;53.184;8.578;2022-08-01T09:59:14;26.00;95.30
23556;DHT22;11956;53.184;8.578;2022-08-01T10:02:37;25.30;96.60
23556;DHT22;11956;53.184;8.578;2022-08-01T10:05:41;26.10;96.70
23556;DHT22;11956;53.184;8.578;2022-08-01T10:08:47;25.80;96.30
23556;DHT22;11956;53.184;8.578;2022-08-01T10:11:48;25.30;98.00
23556;DHT22;11956;53.184;8.578;2022-08-01T10:14:51;25.60;97.10
23556;DHT22;11956;53.184;8.578;2022-08-01T10:17:57;25.90;97.50
23556;DHT22;11956;53.184;8.578;2022-08-01T10:21:01;26.20;96.90
23556;DHT22;11956;53.184;8.578;2022-08-01T10:24:04;25.90;97.40
23556;DHT22;11956;53.184;8.578;2022-08-01T10:27:08;25.90;97.50
23556;DHT22;11956;53.184;8.578;2022-08-01T10:30:11;25.60;96.80
23556;DHT22;11956;53.184;8.578;2022-08-01T10:33:12;25.40;97.70
23556;DHT22;11956;53.184;8.578;2022-08-01T10:36:14;25.00;98.50
23556;DHT22;11956;53.184;8.578;2022-08-01T10:39:19;25.00;97.60
23556;DHT22;11956;53.184;8.578;2022-08-01T10:42:21;24.60;98.20
23556;DHT22;11956;53.184;8.578;2022-08-01T10:45:22;24.90;98.20
23556;DHT22;11956;53.184;8.578;2022-08-01T10:52:06;24.30;99.10
23556;DHT22;11956;53.184;8.578;2022-08-01T10:55:08;24.60;98.50
23556;DHT22;11956;53.184;8.578;2022-08-01T10:58:12;24.70;97.70
23556;DHT22;11956;53.184;8.578;2022-08-01T11:04:17;24.60;98.50
23556;DHT22;11956;53.184;8.578;2022-08-01T11:07:23;23.80;97.80
23556;DHT22;11956;53.184;8.578;2022-08-01T11:10:42;23.10;99.60
23556;DHT22;11956;53.184;8.578;2022-08-01T11:17:42;22.30;99.90
23556;DHT22;11956;53.184;8.578;2022-08-01T11:21:00;22.60;99.90
23556;DHT22;11956;53.184;8.578;2022-08-01T11:24:01;22.50;99.90
23556;DHT22;11956;53.184;8.578;2022-08-01T11:27:25;22.80;99.90
23556;DHT22;11956;53.184;8.578;2022-08-01T11:30:30;22.60;99.10
23556;DHT22;11956;53.184;8.578;2022-08-01T11:36:41;22.60;99.90
23556;DHT22;11956;53.184;8.578;2022-08-01T11:39:42;22.40;99.90
23556;DHT22;11956;53.184;8.578;2022-08-01T11:42:43;22.70;99.90
23556;DHT22;11956;53.184;8.578;2022-08-01T11:45:48;22.50;99.90
23556;DHT22;11956;53.184;8.578;2022-08-01T11:52:37;21.70;99.90
23556;DHT22;11956;53.184;8.578;2022-08-01T11:55:49;22.30;99.90
23556;DHT22;11956;53.184;8.578;2022-08-01T11:58:58;22.10;99.90
23556;DHT22;11956;53.184;8.578;2022-08-01T12:01:59;21.70;99.90
23556;DHT22;11956;53.184;8.578;2022-08-01T12:05:07;21.80;99.90
23556;DHT22;11956;53.184;8.578;2022-08-01T12:08:10;22.00;99.90
23556;DHT22;11956;53.184;8.578;2022-08-01T12:11:11;22.20;99.90
23556;DHT22;11956;53.184;8.578;2022-08-01T12:14:19;22.60;99.90
23556;DHT22;11956;53.184;8.578;2022-08-01T12:17:41;22.90;99.90
23556;DHT22;11956;53.184;8.578;2022-08-01T12:20:45;22.70;99.90
23556;DHT22;11956;53.184;8.578;2022-08-01T12:24:00;22.60;99.90
23556;DHT22;11956;53.184;8.578;2022-08-01T12:27:03;22.70;99.90
23556;DHT22;11956;53.184;8.578;2022-08-01T12:30:11;22.40;99.90
23556;DHT22;11956;53.184;8.578;2022-08-01T12:33:17;22.70;99.90
23556;DHT22;11956;53.184;8.578;2022-08-01T12:36:28;22.40;99.90
23556;DHT22;11956;53.184;8.578;2022-08-01T12:39:33;22.30;99.90
23556;DHT22;11956;53.184;8.578;2022-08-01T12:42:39;22.40;99.90
23556;DHT22;11956;53.184;8.578;2022-08-01T12:45:45;22.40;99.90
23556;DHT22;11956;53.184;8.578;2022-08-01T12:48:47;22.00;99.90
23556;DHT22;11956;53.184;8.578;2022-08-01T12:51:49;22.00;99.90
23556;DHT22;11956;53.184;8.578;2022-08-01T12:55:02;21.90;99.90
23556;DHT22;11956;53.184;8.578;2022-08-01T12:58:17;21.90;99.90
23556;DHT22;11956;53.184;8.578;2022-08-01T13:01:25;21.80;99.90
23556;DHT22;11956;53.184;8.578;2022-08-01T13:04:27;21.90;99.90
23556;DHT22;11956;53.184;8.578;2022-08-01T13:07:54;21.80;99.90
23556;DHT22;11956;53.184;8.578;2022-08-01T13:11:10;21.80;99.90
23556;DHT22;11956;53.184;8.578;2022-08-01T13:14:29;21.70;99.90
23556;DHT22;11956;53.184;8.578;2022-08-01T13:17:32;21.70;99.90
23556;DHT22;11956;53.184;8.578;2022-08-01T13:20:35;21.90;99.90
23556;DHT22;11956;53.184;8.578;2022-08-01T13:23:37;21.70;99.90
23556;DHT22;11956;53.184;8.578;2022-08-01T13:26:42;21.90;99.90
23556;DHT22;11956;53.184;8.578;2022-08-01T13:29:51;22.30;99.90
23556;DHT22;11956;53.184;8.578;2022-08-01T13:32:59;22.20;99.90
23556;DHT22;11956;53.184;8.578;2022-08-01T13:36:00;22.10;99.90
23556;DHT22;11956;53.184;8.578;2022-08-01T13:39:02;22.20;99.90
23556;DHT22;11956;53.184;8.578;2022-08-01T13:42:22;22.20;99.90
23556;DHT22;11956;53.184;8.578;2022-08-01T13:45:23;22.00;99.90
23556;DHT22;11956;53.184;8.578;2022-08-01T13:48:24;21.80;99.90
23556;DHT22;11956;53.184;8.578;2022-08-01T13:51:25;22.10;99.90
23556;DHT22;11956;53.184;8.578;2022-08-01T13:54:26;22.20;99.80
23556;DHT22;11956;53.184;8.578;2022-08-01T13:57:28;22.40;99.90
23556;DHT22;11956;53.184;8.578;2022-08-01T14:00:29;22.20;99.90
23556;DHT22;11956;53.184;8.578;2022-08-01T14:03:30;22.00;99.90
23556;DHT22;11956;53.184;8.578;2022-08-01T14:06:31;21.60;99.90
23556;DHT22;11956;53.184;8.578;2022-08-01T14:09:33;21.80;99.90
23556;DHT22;11956;53.184;8.578;2022-08-01T14:12:33;22.20;99.90
23556;DHT22;11956;53.184;8.578;2022-08-01T14:15:36;22.10;99.90
23556;DHT22;11956;53.184;8.578;2022-08-01T14:18:37;22.20;99.90
23556;DHT22;11956;53.184;8.578;2022-08-01T14:21:38;21.90;99.90
23556;DHT22;11956;53.184;8.578;2022-08-01T14:24:39;21.90;99.90
23556;DHT22;11956;53.184;8.578;2022-08-01T14:27:40;22.10;99.90
23556;DHT22;11956;53.184;8.578;2022-08-01T14:30:42;21.80;99.90
23556;DHT22;11956;53.184;8.578;2022-08-01T14:33:43;21.50;99.90
23556;DHT22;11956;53.184;8.578;2022-08-01T14:36:44;21.70;99.90
23556;DHT22;11956;53.184;8.578;2022-08-01T14:39:44;21.40;99.90
23556;DHT22;11956;53.184;8.578;2022-08-01T14:42:45;21.40;99.90
23556;DHT22;11956;53.184;8.578;2022-08-01T14:45:47;21.50;99.90
23556;DHT22;11956;53.184;8.578;2022-08-01T14:48:50;21.40;99.90
23556;DHT22;11956;53.184;8.578;2022-08-01T14:51:51;21.60;99.90
23556;DHT22;11956;53.184;8.578;2022-08-01T14:54:52;21.10;99.90
23556;DHT22;11956;53.184;8.578;2022-08-01T14:57:53;21.10;99.90
23556;DHT22;11956;53.184;8.578;2022-08-01T15:00:54;21.20;99.90
23556;DHT22;11956;53.184;8.578;2022-08-01T15:03:55;21.10;99.90
23556;DHT22;11956;53.184;8.578;2022-08-01T15:06:56;21.10;99.90
23556;DHT22;11956;53.184;8.578;2022-08-01T15:09:57;21.00;99.90
23556;DHT22;11956;53.184;8.578;2022-08-01T15:12:59;20.80;99.90
23556;DHT22;11956;53.184;8.578;2022-08-01T15:16:00;20.60;99.90
23556;DHT22;11956;53.184;8.578;2022-08-01T15:19:01;20.70;99.90
23556;DHT22;11956;53.184;8.578;2022-08-01T15:22:02;20.60;99.90
23556;DHT22;11956;53.184;8.578;2022-08-01T15:25:03;20.70;99.90
23556;DHT22;11956;53.184;8.578;2022-08-01T15:28:04;20.70;99.90
23556;DHT22;11956;53.184;8.578;2022-08-01T15:31:05;20.80;99.90
23556;DHT22;11956;53.184;8.578;2022-08-01T15:34:06;20.70;99.90
23556;DHT22;11956;53.184;8.578;2022-08-01T15:37:08;20.60;99.90
23556;DHT22;11956;53.184;8.578;2022-08-01T15:40:10;20.60;99.90
23556;DHT22;11956;53.184;8.578;2022-08-01T15:43:11;20.70;99.90
23556;DHT22;11956;53.184;8.578;2022-08-01T15:46:13;20.80;99.90
23556;DHT22;11956;53.184;8.578;2022-08-01T15:49:14;20.80;99.90
23556;DHT22;11956;53.184;8.578;2022-08-01T15:52:15;20.90;99.90
23556;DHT22;11956;53.184;8.578;2022-08-01T15:55:17;20.90;99.90
23556;DHT22;11956;53.184;8.578;2022-08-01T15:58:18;20.80;99.90
23556;DHT22;11956;53.184;8.578;2022-08-01T16:01:19;20.70;99.90
23556;DHT22;11956;53.184;8.578;2022-08-01T16:04:21;20.60;99.90
23556;DHT22;11956;53.184;8.578;2022-08-01T16:07:22;20.50;99.90
23556;DHT22;11956;53.184;8.578;2022-08-01T16:10:23;20.40;99.90
23556;DHT22;11956;53.184;8.578;2022-08-01T16:13:24;20.50;99.90
23556;DHT22;11956;53.184;8.578;2022-08-01T16:16:25;20.50;99.90
23556;DHT22;11956;53.184;8.578;2022-08-01T16:19:26;20.60;99.90
23556;DHT22;11956;53.184;8.578;2022-08-01T16:22:27;20.40;99.90
23556;DHT22;11956;53.184;8.578;2022-08-01T16:25:27;20.40;99.90
23556;DHT22;11956;53.184;8.578;2022-08-01T16:28:28;20.50;99.90
23556;DHT22;11956;53.184;8.578;2022-08-01T16:31:29;20.60;99.90
23556;DHT22;11956;53.184;8.578;2022-08-01T16:34:32;20.50;99.90
23556;DHT22;11956;53.184;8.578;2022-08-01T16:37:33;20.50;99.90
23556;DHT22;11956;53.184;8.578;2022-08-01T16:40:34;20.30;99.90
23556;DHT22;11956;53.184;8.578;2022-08-01T16:43:35;20.20;99.90
23556;DHT22;11956;53.184;8.578;2022-08-01T16:46:37;20.10;99.90
23556;DHT22;11956;53.184;8.578;2022-08-01T16:49:37;19.90;99.90
23556;DHT22;11956;53.184;8.578;2022-08-01T16:52:39;19.80;99.90
23556;DHT22;11956;53.184;8.578;2022-08-01T16:55:40;19.80;99.90
23556;DHT22;11956;53.184;8.578;2022-08-01T16:58:42;19.70;99.90
23556;DHT22;11956;53.184;8.578;2022-08-01T17:01:43;19.60;99.90
23556;DHT22;11956;53.184;8.578;2022-08-01T17:04:44;19.60;99.90
23556;DHT22;11956;53.184;8.578;2022-08-01T17:07:45;19.30;99.90
23556;DHT22;11956;53.184;8.578;2022-08-01T17:10:46;19.30;99.90
23556;DHT22;11956;53.184;8.578;2022-08-01T17:13:48;19.20;99.90
23556;DHT22;11956;53.184;8.578;2022-08-01T17:16:48;19.20;99.90
23556;DHT22;11956;53.184;8.578;2022-08-01T17:19:52;19.20;99.90
23556;DHT22;11956;53.184;8.578;2022-08-01T17:23:00;19.20;99.90
23556;DHT22;11956;53.184;8.578;2022-08-01T17:26:01;19.20;99.90
23556;DHT22;11956;53.184;8.578;2022-08-01T17:29:02;19.10;99.90
23556;DHT22;11956;53.184;8.578;2022-08-01T17:32:03;19.10;99.90
23556;DHT22;11956;53.184;8.578;2022-08-01T17:35:04;19.10;99.90
23556;DHT22;11956;53.184;8.578;2022-08-01T17:38:05;19.00;99.90
23556;DHT22;11956;53.184;8.578;2022-08-01T17:41:06;19.00;99.90
23556;DHT22;11956;53.184;8.578;2022-08-01T17:44:07;19.00;99.90
23556;DHT22;11956;53.184;8.578;2022-08-01T17:47:08;18.90;99.90
23556;DHT22;11956;53.184;8.578;2022-08-01T17:50:11;18.80;99.90
23556;DHT22;11956;53.184;8.578;2022-08-01T17:53:13;18.80;99.90
23556;DHT22;11956;53.184;8.578;2022-08-01T17:56:15;18.70;99.90
23556;DHT22;11956;53.184;8.578;2022-08-01T17:59:15;18.70;99.90
23556;DHT22;11956;53.184;8.578;2022-08-01T18:02:17;18.50;99.90
23556;DHT22;11956;53.184;8.578;2022-08-01T18:05:18;18.40;99.90
23556;DHT22;11956;53.184;8.578;2022-08-01T18:08:19;18.40;99.90
23556;DHT22;11956;53.184;8.578;2022-08-01T18:11:20;18.20;99.90
23556;DHT22;11956;53.184;8.578;2022-08-01T18:14:21;18.20;99.90
23556;DHT22;11956;53.184;8.578;2022-08-01T18:17:22;18.10;99.90
23556;DHT22;11956;53.184;8.578;2022-08-01T18:20:23;18.10;99.90
23556;DHT22;11956;53.184;8.578;2022-08-01T18:23:24;18.00;99.90
23556;DHT22;11956;53.184;8.578;2022-08-01T18:26:26;17.90;99.90
23556;DHT22;11956;53.184;8.578;2022-08-01T18:29:27;17.90;99.90
23556;DHT22;11956;53.184;8.578;2022-08-01T18:32:28;17.80;99.90
23556;DHT22;11956;53.184;8.578;2022-08-01T18:35:29;17.70;99.90
23556;DHT22;11956;53.184;8.578;2022-08-01T18:38:31;17.50;99.90
23556;DHT22;11956;53.184;8.578;2022-08-01T18:41:33;17.40;99.90
23556;DHT22;11956;53.184;8.578;2022-08-01T18:44:34;17.30;99.90
23556;DHT22;11956;53.184;8.578;2022-08-01T18:47:36;17.30;99.90
23556;DHT22;11956;53.184;8.578;2022-08-01T18:50:38;17.20;99.90
23556;DHT22;11956;53.184;8.578;2022-08-01T18:53:39;17.10;99.90
23556;DHT22;11956;53.184;8.578;2022-08-01T18:56:42;17.00;99.90
23556;DHT22;11956;53.184;8.578;2022-08-01T18:59:44;16.90;99.90
23556;DHT22;11956;53.184;8.578;2022-08-01T19:02:45;16.90;99.90
23556;DHT22;11956;53.184;8.578;2022-08-01T19:05:46;16.80;99.90
23556;DHT22;11956;53.184;8.578;2022-08-01T19:08:48;16.70;99.90
23556;DHT22;11956;53.184;8.578;2022-08-01T19:11:51;16.60;99.90
23556;DHT22;11956;53.184;8.578;2022-08-01T19:14:52;16.50;99.90
23556;DHT22;11956;53.184;8.578;2022-08-01T19:17:53;16.40;99.90
23556;DHT22;11956;53.184;8.578;2022-08-01T19:20:54;16.40;99.90
23556;DHT22;11956;53.184;8.578;2022-08-01T19:23:55;16.30;99.90
23556;DHT22;11956;53.184;8.578;2022-08-01T19:27:15;16.30;99.90
23556;DHT22;11956;53.184;8.578;2022-08-01T19:30:19;16.20;99.90
23556;DHT22;11956;53.184;8.578;2022-08-01T19:33:20;16.10;99.90
23556;DHT22;11956;53.184;8.578;2022-08-01T19:36:22;16.00;99.90